sensor_id;sensor_type;location;lat;lon;timestamp;temperature;humidity
46732;DHT22;32477;51.474;5.696;2023-07-13T00:00:19;14.80;99.90
46732;DHT22;32477;51.474;5.696;2023-07-13T00:02:46;14.80;99.90
46732;DHT22;32477;51.474;5.696;2023-07-13T00:05:11;14.80;99.90
46732;DHT22;32477;51.474;5.696;2023-07-13T00:07:37;14.80;99.90
46732;DHT22;32477;51.474;5.696;2023-07-13T00:10:04;14.80;99.90
46732;DHT22;32477;51.474;5.696;2023-07-13T00:12:34;14.70;99.90
46732;DHT22;32477;51.474;5.696;2023-07-13T00:15:06;14.70;99.90
46732;DHT22;32477;51.474;5.696;2023-07-13T00:17:32;14.60;99.90
46732;DHT22;32477;51.474;5.696;2023-07-13T00:19:58;14.60;99.90
46732;DHT22;32477;51.474;5.696;2023-07-13T00:22:25;14.60;99.90
46732;DHT22;32477;51.474;5.696;2023-07-13T00:24:53;14.60;99.90
46732;DHT22;32477;51.474;5.696;2023-07-13T00:27:21;14.70;99.90
46732;DHT22;32477;51.474;5.696;2023-07-13T00:29:47;14.80;99.90
46732;DHT22;32477;51.474;5.696;2023-07-13T00:32:13;14.80;99.90
46732;DHT22;32477;51.474;5.696;2023-07-13T00:34:39;14.80;99.90
46732;DHT22;32477;51.474;5.696;2023-07-13T00:37:06;14.80;99.90
46732;DHT22;32477;51.474;5.696;2023-07-13T00:39:33;14.70;99.90
46732;DHT22;32477;51.474;5.696;2023-07-13T00:42:00;14.70;99.90
46732;DHT22;32477;51.474;5.696;2023-07-13T00:44:26;14.60;99.90
46732;DHT22;32477;51.474;5.696;2023-07-13T00:46:52;14.60;99.90
46732;DHT22;32477;51.474;5.696;2023-07-13T00:49:20;14.60;99.90
46732;DHT22;32477;51.474;5.696;2023-07-13T00:51:50;14.50;99.90
46732;DHT22;32477;51.474;5.696;2023-07-13T00:54:28;14.50;99.90
46732;DHT22;32477;51.474;5.696;2023-07-13T00:56:58;14.40;99.90
46732;DHT22;32477;51.474;5.696;2023-07-13T00:59:25;14.40;99.90
46732;DHT22;32477;51.474;5.696;2023-07-13T01:01:51;14.40;99.90
46732;DHT22;32477;51.474;5.696;2023-07-13T01:04:18;14.50;99.90
46732;DHT22;32477;51.474;5.696;2023-07-13T01:06:44;14.50;99.90
46732;DHT22;32477;51.474;5.696;2023-07-13T01:09:11;14.50;99.90
46732;DHT22;32477;51.474;5.696;2023-07-13T01:11:37;14.50;99.90
46732;DHT22;32477;51.474;5.696;2023-07-13T01:14:03;14.50;99.90
46732;DHT22;32477;51.474;5.696;2023-07-13T01:16:32;14.60;99.90
46732;DHT22;32477;51.474;5.696;2023-07-13T01:19:03;14.60;99.90
46732;DHT22;32477;51.474;5.696;2023-07-13T01:21:33;14.50;99.90
46732;DHT22;32477;51.474;5.696;2023-07-13T01:23:59;14.50;99.90
46732;DHT22;32477;51.474;5.696;2023-07-13T01:26:24;14.50;99.90
46732;DHT22;32477;51.474;5.696;2023-07-13T01:28:50;14.50;99.90
46732;DHT22;32477;51.474;5.696;2023-07-13T01:31:16;14.40;99.90
46732;DHT22;32477;51.474;5.696;2023-07-13T01:33:42;14.40;99.90
46732;DHT22;32477;51.474;5.696;2023-07-13T01:36:10;14.30;99.90
46732;DHT22;32477;51.474;5.696;2023-07-13T01:38:36;14.20;99.90
46732;DHT22;32477;51.474;5.696;2023-07-13T01:41:03;14.20;99.90
46732;DHT22;32477;51.474;5.696;2023-07-13T01:43:29;14.20;99.90
46732;DHT22;32477;51.474;5.696;2023-07-13T01:45:55;14.20;99.90
46732;DHT22;32477;51.474;5.696;2023-07-13T01:48:20;14.20;99.90
46732;DHT22;32477;51.474;5.696;2023-07-13T01:50:47;14.20;99.90
46732;DHT22;32477;51.474;5.696;2023-07-13T01:53:13;14.20;99.90
46732;DHT22;32477;51.474;5.696;2023-07-13T01:55:39;14.20;99.90
46732;DHT22;32477;51.474;5.696;2023-07-13T01:58:05;14.20;99.90
46732;DHT22;32477;51.474;5.696;2023-07-13T02:00:32;14.10;99.90
46732;DHT22;32477;51.474;5.696;2023-07-13T02:02:58;14.10;99.90
46732;DHT22;32477;51.474;5.696;2023-07-13T02:05:24;14.10;99.90
46732;DHT22;32477;51.474;5.696;2023-07-13T02:07:49;14.00;99.90
46732;DHT22;32477;51.474;5.696;2023-07-13T02:10:15;14.00;99.90
46732;DHT22;32477;51.474;5.696;2023-07-13T02:12:42;14.00;99.90
46732;DHT22;32477;51.474;5.696;2023-07-13T02:15:08;13.90;99.90
46732;DHT22;32477;51.474;5.696;2023-07-13T02:17:35;13.90;99.90
46732;DHT22;32477;51.474;5.696;2023-07-13T02:20:01;13.90;99.90
46732;DHT22;32477;51.474;5.696;2023-07-13T02:22:27;13.80;99.90
46732;DHT22;32477;51.474;5.696;2023-07-13T02:24:53;13.80;99.90
46732;DHT22;32477;51.474;5.696;2023-07-13T02:27:19;13.80;99.90
46732;DHT22;32477;51.474;5.696;2023-07-13T02:29:45;13.70;99.90
46732;DHT22;32477;51.474;5.696;2023-07-13T02:32:11;13.80;99.90
46732;DHT22;32477;51.474;5.696;2023-07-13T02:34:36;13.70;99.90
46732;DHT22;32477;51.474;5.696;2023-07-13T02:37:02;13.70;99.90
46732;DHT22;32477;51.474;5.696;2023-07-13T02:39:28;13.70;99.90
46732;DHT22;32477;51.474;5.696;2023-07-13T02:41:54;13.70;99.90
46732;DHT22;32477;51.474;5.696;2023-07-13T02:44:19;13.70;99.90
46732;DHT22;32477;51.474;5.696;2023-07-13T02:46:45;13.70;99.90
46732;DHT22;32477;51.474;5.696;2023-07-13T02:49:11;13.70;99.90
46732;DHT22;32477;51.474;5.696;2023-07-13T02:51:37;13.70;99.90
46732;DHT22;32477;51.474;5.696;2023-07-13T02:54:04;13.70;99.90
46732;DHT22;32477;51.474;5.696;2023-07-13T02:56:31;13.70;99.90
46732;DHT22;32477;51.474;5.696;2023-07-13T02:58:57;13.70;99.90
46732;DHT22;32477;51.474;5.696;2023-07-13T03:01:24;13.60;99.90
46732;DHT22;32477;51.474;5.696;2023-07-13T03:03:50;13.50;99.90
46732;DHT22;32477;51.474;5.696;2023-07-13T03:06:17;13.50;99.90
46732;DHT22;32477;51.474;5.696;2023-07-13T03:08:43;13.50;99.90
46732;DHT22;32477;51.474;5.696;2023-07-13T03:11:13;13.50;99.90
46732;DHT22;32477;51.474;5.696;2023-07-13T03:13:40;13.50;99.90
46732;DHT22;32477;51.474;5.696;2023-07-13T03:16:07;13.60;99.90
46732;DHT22;32477;51.474;5.696;2023-07-13T03:18:33;13.50;99.90
46732;DHT22;32477;51.474;5.696;2023-07-13T03:20:59;13.50;99.90
46732;DHT22;32477;51.474;5.696;2023-07-13T03:23:25;13.50;99.90
46732;DHT22;32477;51.474;5.696;2023-07-13T03:26:07;13.50;99.90
46732;DHT22;32477;51.474;5.696;2023-07-13T03:28:34;13.40;99.90
46732;DHT22;32477;51.474;5.696;2023-07-13T03:31:01;13.40;99.90
46732;DHT22;32477;51.474;5.696;2023-07-13T03:33:27;13.40;99.90
46732;DHT22;32477;51.474;5.696;2023-07-13T03:35:53;13.40;99.90
46732;DHT22;32477;51.474;5.696;2023-07-13T03:38:19;13.40;99.90
46732;DHT22;32477;51.474;5.696;2023-07-13T03:40:45;13.40;99.90
46732;DHT22;32477;51.474;5.696;2023-07-13T03:43:10;13.50;99.90
46732;DHT22;32477;51.474;5.696;2023-07-13T03:45:38;13.40;99.90
46732;DHT22;32477;51.474;5.696;2023-07-13T03:48:04;13.50;99.90
46732;DHT22;32477;51.474;5.696;2023-07-13T03:50:30;13.40;99.90
46732;DHT22;32477;51.474;5.696;2023-07-13T03:52:58;13.50;99.90
46732;DHT22;32477;51.474;5.696;2023-07-13T03:55:24;13.40;99.90
46732;DHT22;32477;51.474;5.696;2023-07-13T03:57:57;13.50;99.90
46732;DHT22;32477;51.474;5.696;2023-07-13T04:00:23;13.40;99.90
46732;DHT22;32477;51.474;5.696;2023-07-13T04:02:50;13.50;99.90
46732;DHT22;32477;51.474;5.696;2023-07-13T04:05:16;13.50;99.90
46732;DHT22;32477;51.474;5.696;2023-07-13T04:07:41;13.50;99.90
46732;DHT22;32477;51.474;5.696;2023-07-13T04:10:08;13.50;99.90
46732;DHT22;32477;51.474;5.696;2023-07-13T04:12:33;13.50;99.90
46732;DHT22;32477;51.474;5.696;2023-07-13T04:14:59;13.50;99.90
46732;DHT22;32477;51.474;5.696;2023-07-13T04:17:25;13.60;99.90
46732;DHT22;32477;51.474;5.696;2023-07-13T04:19:51;13.60;99.90
46732;DHT22;32477;51.474;5.696;2023-07-13T04:22:16;13.60;99.90
46732;DHT22;32477;51.474;5.696;2023-07-13T04:24:42;13.70;99.90
46732;DHT22;32477;51.474;5.696;2023-07-13T04:27:08;13.80;99.90
46732;DHT22;32477;51.474;5.696;2023-07-13T04:29:33;13.90;99.90
46732;DHT22;32477;51.474;5.696;2023-07-13T04:31:59;13.90;99.90
46732;DHT22;32477;51.474;5.696;2023-07-13T04:34:25;13.90;99.90
46732;DHT22;32477;51.474;5.696;2023-07-13T04:36:50;14.00;99.90
46732;DHT22;32477;51.474;5.696;2023-07-13T04:39:16;14.00;99.90
46732;DHT22;32477;51.474;5.696;2023-07-13T04:41:42;14.10;99.90
46732;DHT22;32477;51.474;5.696;2023-07-13T04:44:08;14.30;99.90
46732;DHT22;32477;51.474;5.696;2023-07-13T04:46:34;14.40;99.90
46732;DHT22;32477;51.474;5.696;2023-07-13T04:48:59;14.50;99.90
46732;DHT22;32477;51.474;5.696;2023-07-13T04:51:26;14.60;99.90
46732;DHT22;32477;51.474;5.696;2023-07-13T04:53:52;14.60;99.90
46732;DHT22;32477;51.474;5.696;2023-07-13T04:56:18;14.80;99.90
46732;DHT22;32477;51.474;5.696;2023-07-13T04:58:45;14.90;99.90
46732;DHT22;32477;51.474;5.696;2023-07-13T05:01:11;15.00;99.90
46732;DHT22;32477;51.474;5.696;2023-07-13T05:03:36;15.10;99.90
46732;DHT22;32477;51.474;5.696;2023-07-13T05:06:05;15.30;99.90
46732;DHT22;32477;51.474;5.696;2023-07-13T05:08:31;15.40;99.90
46732;DHT22;32477;51.474;5.696;2023-07-13T05:10:58;15.50;99.90
46732;DHT22;32477;51.474;5.696;2023-07-13T05:13:24;15.70;99.90
46732;DHT22;32477;51.474;5.696;2023-07-13T05:15:58;15.80;99.90
46732;DHT22;32477;51.474;5.696;2023-07-13T05:18:24;15.90;99.90
46732;DHT22;32477;51.474;5.696;2023-07-13T05:20:59;15.90;99.90
46732;DHT22;32477;51.474;5.696;2023-07-13T05:23:25;16.00;99.90
46732;DHT22;32477;51.474;5.696;2023-07-13T05:25:51;16.10;99.90
46732;DHT22;32477;51.474;5.696;2023-07-13T05:28:16;16.30;99.90
46732;DHT22;32477;51.474;5.696;2023-07-13T05:30:46;16.40;99.90
46732;DHT22;32477;51.474;5.696;2023-07-13T05:33:12;16.50;99.90
46732;DHT22;32477;51.474;5.696;2023-07-13T05:35:38;16.60;99.90
46732;DHT22;32477;51.474;5.696;2023-07-13T05:38:04;16.70;99.90
46732;DHT22;32477;51.474;5.696;2023-07-13T05:40:30;16.80;99.90
46732;DHT22;32477;51.474;5.696;2023-07-13T05:42:55;16.90;99.90
46732;DHT22;32477;51.474;5.696;2023-07-13T05:45:21;17.10;99.90
46732;DHT22;32477;51.474;5.696;2023-07-13T05:47:47;17.20;99.90
46732;DHT22;32477;51.474;5.696;2023-07-13T05:50:12;17.40;99.90
46732;DHT22;32477;51.474;5.696;2023-07-13T05:52:38;17.50;99.90
46732;DHT22;32477;51.474;5.696;2023-07-13T05:55:04;17.70;99.90
46732;DHT22;32477;51.474;5.696;2023-07-13T05:57:30;17.70;99.90
46732;DHT22;32477;51.474;5.696;2023-07-13T05:59:57;17.70;99.90
46732;DHT22;32477;51.474;5.696;2023-07-13T06:02:23;17.70;99.90
46732;DHT22;32477;51.474;5.696;2023-07-13T06:04:49;17.60;99.90
46732;DHT22;32477;51.474;5.696;2023-07-13T06:07:14;17.60;99.90
46732;DHT22;32477;51.474;5.696;2023-07-13T06:09:40;17.60;99.90
46732;DHT22;32477;51.474;5.696;2023-07-13T06:12:06;17.50;99.90
46732;DHT22;32477;51.474;5.696;2023-07-13T06:14:32;17.40;99.90
46732;DHT22;32477;51.474;5.696;2023-07-13T06:16:58;17.50;99.90
46732;DHT22;32477;51.474;5.696;2023-07-13T06:19:23;17.40;99.90
46732;DHT22;32477;51.474;5.696;2023-07-13T06:21:49;17.40;99.90
46732;DHT22;32477;51.474;5.696;2023-07-13T06:24:15;17.50;99.90
46732;DHT22;32477;51.474;5.696;2023-07-13T06:26:41;17.70;99.90
46732;DHT22;32477;51.474;5.696;2023-07-13T06:29:07;18.00;99.90
46732;DHT22;32477;51.474;5.696;2023-07-13T06:31:32;18.10;99.90
46732;DHT22;32477;51.474;5.696;2023-07-13T06:33:58;18.30;99.90
46732;DHT22;32477;51.474;5.696;2023-07-13T06:36:24;18.40;99.90
46732;DHT22;32477;51.474;5.696;2023-07-13T06:38:49;18.50;99.90
46732;DHT22;32477;51.474;5.696;2023-07-13T06:41:15;18.50;99.90
46732;DHT22;32477;51.474;5.696;2023-07-13T06:43:41;18.50;99.90
46732;DHT22;32477;51.474;5.696;2023-07-13T06:46:07;18.30;99.90
46732;DHT22;32477;51.474;5.696;2023-07-13T06:48:32;18.30;99.90
46732;DHT22;32477;51.474;5.696;2023-07-13T06:50:58;18.50;99.90
46732;DHT22;32477;51.474;5.696;2023-07-13T06:53:24;18.70;99.90
46732;DHT22;32477;51.474;5.696;2023-07-13T06:55:50;18.80;99.90
46732;DHT22;32477;51.474;5.696;2023-07-13T06:58:17;18.80;99.90
46732;DHT22;32477;51.474;5.696;2023-07-13T07:00:43;18.80;99.90
46732;DHT22;32477;51.474;5.696;2023-07-13T07:03:09;18.60;99.90
46732;DHT22;32477;51.474;5.696;2023-07-13T07:05:36;18.60;99.90
46732;DHT22;32477;51.474;5.696;2023-07-13T07:08:06;18.50;99.90
46732;DHT22;32477;51.474;5.696;2023-07-13T07:10:32;18.60;99.90
46732;DHT22;32477;51.474;5.696;2023-07-13T07:12:58;18.60;99.90
46732;DHT22;32477;51.474;5.696;2023-07-13T07:15:24;18.40;99.90
46732;DHT22;32477;51.474;5.696;2023-07-13T07:17:50;18.40;99.90
46732;DHT22;32477;51.474;5.696;2023-07-13T07:20:16;18.50;99.90
46732;DHT22;32477;51.474;5.696;2023-07-13T07:22:42;18.60;99.90
46732;DHT22;32477;51.474;5.696;2023-07-13T07:25:07;18.70;99.90
46732;DHT22;32477;51.474;5.696;2023-07-13T07:27:33;18.90;99.90
46732;DHT22;32477;51.474;5.696;2023-07-13T07:29:59;19.10;99.90
46732;DHT22;32477;51.474;5.696;2023-07-13T07:32:25;19.30;99.90
46732;DHT22;32477;51.474;5.696;2023-07-13T07:34:51;19.50;99.90
46732;DHT22;32477;51.474;5.696;2023-07-13T07:37:17;19.50;99.90
46732;DHT22;32477;51.474;5.696;2023-07-13T07:39:43;19.60;99.90
46732;DHT22;32477;51.474;5.696;2023-07-13T07:42:10;19.70;99.90
46732;DHT22;32477;51.474;5.696;2023-07-13T07:44:36;19.60;99.90
46732;DHT22;32477;51.474;5.696;2023-07-13T07:47:01;19.60;99.90
46732;DHT22;32477;51.474;5.696;2023-07-13T07:49:27;19.60;99.90
46732;DHT22;32477;51.474;5.696;2023-07-13T07:51:53;19.70;99.90
46732;DHT22;32477;51.474;5.696;2023-07-13T07:54:19;19.80;99.90
46732;DHT22;32477;51.474;5.696;2023-07-13T07:56:44;19.90;99.90
46732;DHT22;32477;51.474;5.696;2023-07-13T07:59:10;19.70;99.90
46732;DHT22;32477;51.474;5.696;2023-07-13T08:01:37;19.70;99.90
46732;DHT22;32477;51.474;5.696;2023-07-13T08:04:02;19.90;99.90
46732;DHT22;32477;51.474;5.696;2023-07-13T08:06:28;20.20;99.90
46732;DHT22;32477;51.474;5.696;2023-07-13T08:08:55;20.40;99.90
46732;DHT22;32477;51.474;5.696;2023-07-13T08:11:21;20.90;99.90
46732;DHT22;32477;51.474;5.696;2023-07-13T08:13:47;21.70;99.90
46732;DHT22;32477;51.474;5.696;2023-07-13T08:16:13;22.20;99.90
46732;DHT22;32477;51.474;5.696;2023-07-13T08:18:38;22.70;99.90
46732;DHT22;32477;51.474;5.696;2023-07-13T08:21:08;22.90;99.90
46732;DHT22;32477;51.474;5.696;2023-07-13T08:23:35;23.40;99.90
46732;DHT22;32477;51.474;5.696;2023-07-13T08:26:01;23.70;99.90
46732;DHT22;32477;51.474;5.696;2023-07-13T08:28:28;23.50;99.90
46732;DHT22;32477;51.474;5.696;2023-07-13T08:30:54;23.60;99.90
46732;DHT22;32477;51.474;5.696;2023-07-13T08:33:21;23.70;99.90
46732;DHT22;32477;51.474;5.696;2023-07-13T08:35:50;23.50;99.90
46732;DHT22;32477;51.474;5.696;2023-07-13T08:38:16;23.10;99.90
46732;DHT22;32477;51.474;5.696;2023-07-13T08:40:43;23.50;99.90
46732;DHT22;32477;51.474;5.696;2023-07-13T08:43:17;23.50;99.90
46732;DHT22;32477;51.474;5.696;2023-07-13T08:45:45;23.10;99.90
46732;DHT22;32477;51.474;5.696;2023-07-13T08:48:24;23.20;99.90
46732;DHT22;32477;51.474;5.696;2023-07-13T08:51:04;23.60;99.90
46732;DHT22;32477;51.474;5.696;2023-07-13T08:53:47;23.60;99.90
46732;DHT22;32477;51.474;5.696;2023-07-13T08:56:24;24.80;99.90
46732;DHT22;32477;51.474;5.696;2023-07-13T08:59:00;25.60;99.90
46732;DHT22;32477;51.474;5.696;2023-07-13T09:04:23;24.90;99.90
46732;DHT22;32477;51.474;5.696;2023-07-13T09:15:37;24.60;99.90
46732;DHT22;32477;51.474;5.696;2023-07-13T09:18:26;24.80;99.90
46732;DHT22;32477;51.474;5.696;2023-07-13T09:20:56;25.20;99.90
46732;DHT22;32477;51.474;5.696;2023-07-13T09:23:24;24.50;99.90
46732;DHT22;32477;51.474;5.696;2023-07-13T09:25:55;24.10;99.90
46732;DHT22;32477;51.474;5.696;2023-07-13T09:28:33;23.60;99.90
46732;DHT22;32477;51.474;5.696;2023-07-13T09:31:28;23.20;99.90
46732;DHT22;32477;51.474;5.696;2023-07-13T09:33:57;23.90;99.90
46732;DHT22;32477;51.474;5.696;2023-07-13T09:36:28;25.70;99.60
46732;DHT22;32477;51.474;5.696;2023-07-13T09:39:14;25.30;98.60
46732;DHT22;32477;51.474;5.696;2023-07-13T09:44:17;25.10;99.80
46732;DHT22;32477;51.474;5.696;2023-07-13T09:46:52;25.30;98.70
46732;DHT22;32477;51.474;5.696;2023-07-13T09:49:26;25.80;98.50
46732;DHT22;32477;51.474;5.696;2023-07-13T09:52:09;26.00;98.10
46732;DHT22;32477;51.474;5.696;2023-07-13T09:54:37;25.90;98.30
46732;DHT22;32477;51.474;5.696;2023-07-13T09:57:11;27.00;96.70
46732;DHT22;32477;51.474;5.696;2023-07-13T09:59:41;27.10;95.50
46732;DHT22;32477;51.474;5.696;2023-07-13T10:02:33;26.70;95.60
46732;DHT22;32477;51.474;5.696;2023-07-13T10:05:11;27.20;95.40
46732;DHT22;32477;51.474;5.696;2023-07-13T10:07:40;27.20;94.50
46732;DHT22;32477;51.474;5.696;2023-07-13T10:10:18;26.80;94.90
46732;DHT22;32477;51.474;5.696;2023-07-13T10:12:45;26.20;96.10
46732;DHT22;32477;51.474;5.696;2023-07-13T10:15:20;25.80;97.30
46732;DHT22;32477;51.474;5.696;2023-07-13T10:17:47;27.10;96.10
46732;DHT22;32477;51.474;5.696;2023-07-13T10:20:14;27.00;95.40
46732;DHT22;32477;51.474;5.696;2023-07-13T10:22:57;26.20;95.80
46732;DHT22;32477;51.474;5.696;2023-07-13T10:25:27;26.50;95.70
46732;DHT22;32477;51.474;5.696;2023-07-13T10:28:06;27.60;95.30
46732;DHT22;32477;51.474;5.696;2023-07-13T10:30:40;28.40;94.50
46732;DHT22;32477;51.474;5.696;2023-07-13T10:33:11;29.20;93.10
46732;DHT22;32477;51.474;5.696;2023-07-13T10:35:39;29.70;92.60
46732;DHT22;32477;51.474;5.696;2023-07-13T10:38:11;29.70;92.20
46732;DHT22;32477;51.474;5.696;2023-07-13T10:43:25;28.70;92.70
46732;DHT22;32477;51.474;5.696;2023-07-13T10:45:52;27.90;93.40
46732;DHT22;32477;51.474;5.696;2023-07-13T10:48:21;27.60;93.40
46732;DHT22;32477;51.474;5.696;2023-07-13T10:50:50;27.50;93.50
46732;DHT22;32477;51.474;5.696;2023-07-13T10:53:35;28.00;93.30
46732;DHT22;32477;51.474;5.696;2023-07-13T10:56:04;28.50;92.40
46732;DHT22;32477;51.474;5.696;2023-07-13T10:58:43;28.90;92.00
46732;DHT22;32477;51.474;5.696;2023-07-13T11:08:37;27.60;92.10
46732;DHT22;32477;51.474;5.696;2023-07-13T11:22:02;21.40;99.90
46732;DHT22;32477;51.474;5.696;2023-07-13T11:24:30;20.20;99.90
46732;DHT22;32477;51.474;5.696;2023-07-13T11:29:48;22.40;99.90
46732;DHT22;32477;51.474;5.696;2023-07-13T11:32:25;23.90;99.90
46732;DHT22;32477;51.474;5.696;2023-07-13T11:34:55;23.90;99.90
46732;DHT22;32477;51.474;5.696;2023-07-13T11:37:21;24.30;99.90
46732;DHT22;32477;51.474;5.696;2023-07-13T11:39:50;24.90;99.90
46732;DHT22;32477;51.474;5.696;2023-07-13T11:42:18;25.90;99.90
46732;DHT22;32477;51.474;5.696;2023-07-13T11:44:49;25.40;99.90
46732;DHT22;32477;51.474;5.696;2023-07-13T11:47:21;24.20;99.90
46732;DHT22;32477;51.474;5.696;2023-07-13T11:49:55;23.20;99.90
46732;DHT22;32477;51.474;5.696;2023-07-13T11:52:37;22.50;99.90
46732;DHT22;32477;51.474;5.696;2023-07-13T11:55:13;23.50;99.90
46732;DHT22;32477;51.474;5.696;2023-07-13T11:57:45;25.50;99.90
46732;DHT22;32477;51.474;5.696;2023-07-13T12:00:13;26.60;99.90
46732;DHT22;32477;51.474;5.696;2023-07-13T12:02:47;26.80;99.90
46732;DHT22;32477;51.474;5.696;2023-07-13T12:05:16;26.90;99.90
46732;DHT22;32477;51.474;5.696;2023-07-13T12:07:44;26.50;99.90
46732;DHT22;32477;51.474;5.696;2023-07-13T12:15:36;24.80;99.90
46732;DHT22;32477;51.474;5.696;2023-07-13T12:18:03;24.10;99.90
46732;DHT22;32477;51.474;5.696;2023-07-13T12:20:38;23.70;99.90
46732;DHT22;32477;51.474;5.696;2023-07-13T12:23:29;23.40;99.90
46732;DHT22;32477;51.474;5.696;2023-07-13T12:25:57;22.70;99.90
46732;DHT22;32477;51.474;5.696;2023-07-13T12:28:38;22.30;99.90
46732;DHT22;32477;51.474;5.696;2023-07-13T12:33:57;21.90;99.90
46732;DHT22;32477;51.474;5.696;2023-07-13T12:36:23;21.90;99.90
46732;DHT22;32477;51.474;5.696;2023-07-13T12:38:49;21.90;99.90
46732;DHT22;32477;51.474;5.696;2023-07-13T12:41:16;22.00;99.90
46732;DHT22;32477;51.474;5.696;2023-07-13T12:43:45;22.20;99.90
46732;DHT22;32477;51.474;5.696;2023-07-13T12:46:18;23.70;99.90
46732;DHT22;32477;51.474;5.696;2023-07-13T12:48:49;25.40;99.90
46732;DHT22;32477;51.474;5.696;2023-07-13T12:51:15;25.80;99.90
46732;DHT22;32477;51.474;5.696;2023-07-13T12:53:48;25.30;99.90
46732;DHT22;32477;51.474;5.696;2023-07-13T12:56:26;24.80;99.90
46732;DHT22;32477;51.474;5.696;2023-07-13T12:59:01;24.20;99.90
46732;DHT22;32477;51.474;5.696;2023-07-13T13:01:29;24.10;99.90
46732;DHT22;32477;51.474;5.696;2023-07-13T13:04:01;23.70;99.90
46732;DHT22;32477;51.474;5.696;2023-07-13T13:06:32;23.70;99.90
46732;DHT22;32477;51.474;5.696;2023-07-13T13:08:59;24.00;99.90
46732;DHT22;32477;51.474;5.696;2023-07-13T13:11:26;24.30;99.90
46732;DHT22;32477;51.474;5.696;2023-07-13T13:13:52;24.50;99.30
46732;DHT22;32477;51.474;5.696;2023-07-13T13:16:31;24.50;99.10
46732;DHT22;32477;51.474;5.696;2023-07-13T13:19:00;24.30;98.80
46732;DHT22;32477;51.474;5.696;2023-07-13T13:21:28;23.90;98.40
46732;DHT22;32477;51.474;5.696;2023-07-13T13:23:54;23.60;98.60
46732;DHT22;32477;51.474;5.696;2023-07-13T13:26:23;23.40;99.10
46732;DHT22;32477;51.474;5.696;2023-07-13T13:28:49;23.00;99.50
46732;DHT22;32477;51.474;5.696;2023-07-13T13:31:15;22.60;99.90
46732;DHT22;32477;51.474;5.696;2023-07-13T13:33:43;22.20;99.90
46732;DHT22;32477;51.474;5.696;2023-07-13T13:36:19;21.90;99.90
46732;DHT22;32477;51.474;5.696;2023-07-13T13:38:46;21.70;99.90
46732;DHT22;32477;51.474;5.696;2023-07-13T13:41:14;21.50;99.90
46732;DHT22;32477;51.474;5.696;2023-07-13T13:43:41;21.30;99.90
46732;DHT22;32477;51.474;5.696;2023-07-13T13:46:17;21.20;99.90
46732;DHT22;32477;51.474;5.696;2023-07-13T13:48:44;21.20;99.90
46732;DHT22;32477;51.474;5.696;2023-07-13T13:51:15;21.00;99.90
46732;DHT22;32477;51.474;5.696;2023-07-13T13:53:41;20.90;99.90
46732;DHT22;32477;51.474;5.696;2023-07-13T13:56:07;20.70;99.90
46732;DHT22;32477;51.474;5.696;2023-07-13T13:58:32;20.70;99.90
46732;DHT22;32477;51.474;5.696;2023-07-13T14:00:58;20.80;99.90
46732;DHT22;32477;51.474;5.696;2023-07-13T14:03:24;21.00;99.90
46732;DHT22;32477;51.474;5.696;2023-07-13T14:05:50;21.40;99.90
46732;DHT22;32477;51.474;5.696;2023-07-13T14:08:18;21.70;99.90
46732;DHT22;32477;51.474;5.696;2023-07-13T14:10:45;22.10;99.90
46732;DHT22;32477;51.474;5.696;2023-07-13T14:13:23;22.40;99.90
46732;DHT22;32477;51.474;5.696;2023-07-13T14:15:52;22.50;99.90
46732;DHT22;32477;51.474;5.696;2023-07-13T14:18:18;22.70;99.90
46732;DHT22;32477;51.474;5.696;2023-07-13T14:20:48;22.90;99.90
46732;DHT22;32477;51.474;5.696;2023-07-13T14:23:17;23.00;99.90
46732;DHT22;32477;51.474;5.696;2023-07-13T14:25:44;22.90;99.90
46732;DHT22;32477;51.474;5.696;2023-07-13T14:28:25;22.60;99.90
46732;DHT22;32477;51.474;5.696;2023-07-13T14:30:52;22.70;99.90
46732;DHT22;32477;51.474;5.696;2023-07-13T14:33:20;22.60;99.90
46732;DHT22;32477;51.474;5.696;2023-07-13T14:35:46;22.50;99.90
46732;DHT22;32477;51.474;5.696;2023-07-13T14:38:16;22.50;99.90
46732;DHT22;32477;51.474;5.696;2023-07-13T14:40:42;22.30;99.90
46732;DHT22;32477;51.474;5.696;2023-07-13T14:43:15;21.90;99.90
46732;DHT22;32477;51.474;5.696;2023-07-13T14:45:48;21.90;99.90
46732;DHT22;32477;51.474;5.696;2023-07-13T14:48:22;21.90;99.90
46732;DHT22;32477;51.474;5.696;2023-07-13T14:50:57;22.10;99.90
46732;DHT22;32477;51.474;5.696;2023-07-13T14:53:25;22.30;99.90
46732;DHT22;32477;51.474;5.696;2023-07-13T14:55:53;22.60;99.90
46732;DHT22;32477;51.474;5.696;2023-07-13T14:58:19;22.80;99.90
46732;DHT22;32477;51.474;5.696;2023-07-13T15:00:45;22.80;99.90
46732;DHT22;32477;51.474;5.696;2023-07-13T15:03:22;22.90;99.90
46732;DHT22;32477;51.474;5.696;2023-07-13T15:05:49;22.90;99.90
46732;DHT22;32477;51.474;5.696;2023-07-13T15:08:15;22.80;99.90
46732;DHT22;32477;51.474;5.696;2023-07-13T15:10:41;22.80;99.90
46732;DHT22;32477;51.474;5.696;2023-07-13T15:13:21;22.90;99.90
46732;DHT22;32477;51.474;5.696;2023-07-13T15:15:49;23.00;99.90
46732;DHT22;32477;51.474;5.696;2023-07-13T15:18:18;23.30;99.90
46732;DHT22;32477;51.474;5.696;2023-07-13T15:20:45;23.50;99.90
46732;DHT22;32477;51.474;5.696;2023-07-13T15:23:14;23.60;99.90
46732;DHT22;32477;51.474;5.696;2023-07-13T15:25:41;23.80;99.90
46732;DHT22;32477;51.474;5.696;2023-07-13T15:28:07;24.10;99.90
46732;DHT22;32477;51.474;5.696;2023-07-13T15:30:42;24.50;99.90
46732;DHT22;32477;51.474;5.696;2023-07-13T15:33:13;24.60;99.40
46732;DHT22;32477;51.474;5.696;2023-07-13T15:35:39;24.30;99.90
46732;DHT22;32477;51.474;5.696;2023-07-13T15:38:18;24.30;99.90
46732;DHT22;32477;51.474;5.696;2023-07-13T15:40:44;24.10;99.20
46732;DHT22;32477;51.474;5.696;2023-07-13T15:43:14;23.80;99.40
46732;DHT22;32477;51.474;5.696;2023-07-13T15:45:40;23.50;99.90
46732;DHT22;32477;51.474;5.696;2023-07-13T15:48:17;23.20;99.90
46732;DHT22;32477;51.474;5.696;2023-07-13T15:50:54;23.20;99.90
46732;DHT22;32477;51.474;5.696;2023-07-13T15:53:23;23.10;99.90
46732;DHT22;32477;51.474;5.696;2023-07-13T15:55:50;23.00;99.90
46732;DHT22;32477;51.474;5.696;2023-07-13T15:58:17;23.20;99.90
46732;DHT22;32477;51.474;5.696;2023-07-13T16:00:44;23.50;99.90
46732;DHT22;32477;51.474;5.696;2023-07-13T16:03:10;23.40;99.90
46732;DHT22;32477;51.474;5.696;2023-07-13T16:05:36;23.40;99.90
46732;DHT22;32477;51.474;5.696;2023-07-13T16:08:06;23.40;99.90
46732;DHT22;32477;51.474;5.696;2023-07-13T16:10:34;23.40;99.90
46732;DHT22;32477;51.474;5.696;2023-07-13T16:13:01;23.60;99.90
46732;DHT22;32477;51.474;5.696;2023-07-13T16:15:27;23.60;99.90
46732;DHT22;32477;51.474;5.696;2023-07-13T16:17:53;23.40;99.90
46732;DHT22;32477;51.474;5.696;2023-07-13T16:20:20;23.10;99.90
46732;DHT22;32477;51.474;5.696;2023-07-13T16:22:48;22.70;99.90